sensor_id;sensor_type;location;lat;lon;timestamp;pressure;altitude;pressure_sealevel;temperature;humidity
82033;BME280;71595;52.180;4.512;2024-03-25T00:00:42;100843.06;;;6.99;73.81
82033;BME280;71595;52.180;4.512;2024-03-25T00:03:08;100832.91;;;7.00;74.28
82033;BME280;71595;52.180;4.512;2024-03-25T00:05:33;100830.97;;;7.00;73.75
82033;BME280;71595;52.180;4.512;2024-03-25T00:07:59;100835.34;;;7.01;74.18
82033;BME280;71595;52.180;4.512;2024-03-25T00:10:24;100848.75;;;7.03;74.17
82033;BME280;71595;52.180;4.512;2024-03-25T00:12:49;100842.25;;;6.99;74.77
82033;BME280;71595;52.180;4.512;2024-03-25T00:15:19;100832.09;;;6.99;74.35
82033;BME280;71595;52.180;4.512;2024-03-25T00:17:45;100832.91;;;7.00;74.77
82033;BME280;71595;52.180;4.512;2024-03-25T00:20:12;100824.34;;;7.01;74.49
82033;BME280;71595;52.180;4.512;2024-03-25T00:22:38;100824.34;;;7.01;74.09
82033;BME280;71595;52.180;4.512;2024-03-25T00:25:03;100826.28;;;7.01;73.95
82033;BME280;71595;52.180;4.512;2024-03-25T00:27:28;100829.03;;;7.01;73.97
82033;BME280;71595;52.180;4.512;2024-03-25T00:29:55;100821.09;;;6.99;74.60
82033;BME280;71595;52.180;4.512;2024-03-25T00:32:20;100827.72;;;6.98;74.80
82033;BME280;71595;52.180;4.512;2024-03-25T00:34:46;100827.22;;;6.96;75.16
82033;BME280;71595;52.180;4.512;2024-03-25T00:37:11;100827.22;;;6.96;75.03
82033;BME280;71595;52.180;4.512;2024-03-25T00:39:36;100828.38;;;6.95;75.28
82033;BME280;71595;52.180;4.512;2024-03-25T00:42:02;100834.97;;;6.94;75.00
82033;BME280;71595;52.180;4.512;2024-03-25T00:44:27;100834.97;;;6.94;74.00
82033;BME280;71595;52.180;4.512;2024-03-25T00:46:53;100831.75;;;6.92;74.37
82033;BME280;71595;52.180;4.512;2024-03-25T00:49:18;100834.28;;;6.89;74.83
82033;BME280;71595;52.180;4.512;2024-03-25T00:51:44;100840.09;;;6.87;74.61
82033;BME280;71595;52.180;4.512;2024-03-25T00:54:09;100836.84;;;6.85;75.16
82033;BME280;71595;52.180;4.512;2024-03-25T00:56:34;100836.06;;;6.84;75.97
82033;BME280;71595;52.180;4.512;2024-03-25T00:59:07;100823.28;;;6.80;75.57
82033;BME280;71595;52.180;4.512;2024-03-25T01:01:33;100834.09;;;6.76;75.44
82033;BME280;71595;52.180;4.512;2024-03-25T01:04:01;100826.16;;;6.75;75.15
82033;BME280;71595;52.180;4.512;2024-03-25T01:06:26;100836.13;;;6.71;75.29
82033;BME280;71595;52.180;4.512;2024-03-25T01:08:52;100840.50;;;6.72;75.20
82033;BME280;71595;52.180;4.512;2024-03-25T01:11:17;100848.22;;;6.70;75.34
82033;BME280;71595;52.180;4.512;2024-03-25T01:13:43;100848.22;;;6.70;75.35
82033;BME280;71595;52.180;4.512;2024-03-25T01:16:08;100847.75;;;6.68;75.45
82033;BME280;71595;52.180;4.512;2024-03-25T01:18:34;100840.63;;;6.66;75.69
82033;BME280;71595;52.180;4.512;2024-03-25T01:20:59;100844.50;;;6.65;74.82
82033;BME280;71595;52.180;4.512;2024-03-25T01:23:24;100850.63;;;6.62;75.53
82033;BME280;71595;52.180;4.512;2024-03-25T01:25:50;100848.50;;;6.59;75.33
82033;BME280;71595;52.180;4.512;2024-03-25T01:28:15;100843.63;;;6.56;75.68
82033;BME280;71595;52.180;4.512;2024-03-25T01:30:41;100842.31;;;6.54;75.93
82033;BME280;71595;52.180;4.512;2024-03-25T01:33:06;100849.22;;;6.51;75.02
82033;BME280;71595;52.180;4.512;2024-03-25T01:35:31;100846.63;;;6.46;75.89
82033;BME280;71595;52.180;4.512;2024-03-25T01:37:57;100844.81;;;6.41;76.15
82033;BME280;71595;52.180;4.512;2024-03-25T01:40:22;100847.84;;;6.40;76.33
82033;BME280;71595;52.180;4.512;2024-03-25T01:42:57;100846.53;;;6.37;75.79
82033;BME280;71595;52.180;4.512;2024-03-25T01:45:27;100843.31;;;6.35;76.30
82033;BME280;71595;52.180;4.512;2024-03-25T01:47:54;100840.88;;;6.34;76.49
82033;BME280;71595;52.180;4.512;2024-03-25T01:50:20;100830.22;;;6.32;75.77
82033;BME280;71595;52.180;4.512;2024-03-25T01:52:46;100827.78;;;6.30;76.36
82033;BME280;71595;52.180;4.512;2024-03-25T01:55:12;100836.31;;;6.29;76.23
82033;BME280;71595;52.180;4.512;2024-03-25T01:57:42;100836.00;;;6.30;77.05
82033;BME280;71595;52.180;4.512;2024-03-25T02:00:08;100847.81;;;6.31;76.25
82033;BME280;71595;52.180;4.512;2024-03-25T02:02:35;100845.88;;;6.32;76.50
82033;BME280;71595;52.180;4.512;2024-03-25T02:05:03;100838.75;;;6.30;77.13
82033;BME280;71595;52.180;4.512;2024-03-25T02:07:28;100842.13;;;6.27;77.13
82033;BME280;71595;52.180;4.512;2024-03-25T02:09:55;100849.22;;;6.28;76.63
82033;BME280;71595;52.180;4.512;2024-03-25T02:12:20;100848.13;;;6.29;76.85
82033;BME280;71595;52.180;4.512;2024-03-25T02:14:46;100844.22;;;6.30;76.78
82033;BME280;71595;52.180;4.512;2024-03-25T02:17:11;100846.50;;;6.28;76.46
82033;BME280;71595;52.180;4.512;2024-03-25T02:19:37;100840.00;;;6.24;76.62
82033;BME280;71595;52.180;4.512;2024-03-25T02:22:04;100832.91;;;6.23;76.25
82033;BME280;71595;52.180;4.512;2024-03-25T02:24:29;100830.47;;;6.22;76.39
82033;BME280;71595;52.180;4.512;2024-03-25T02:26:56;100839.81;;;6.21;75.98
82033;BME280;71595;52.180;4.512;2024-03-25T02:29:21;100831.09;;;6.19;75.92
82033;BME280;71595;52.180;4.512;2024-03-25T02:31:46;100822.16;;;6.13;76.31
82033;BME280;71595;52.180;4.512;2024-03-25T02:34:13;100821.84;;;6.15;75.95
82033;BME280;71595;52.180;4.512;2024-03-25T02:36:38;100816.50;;;6.09;76.02
82033;BME280;71595;52.180;4.512;2024-03-25T02:39:04;100809.19;;;6.05;77.06
82033;BME280;71595;52.180;4.512;2024-03-25T02:41:30;100805.13;;;6.02;76.37
82033;BME280;71595;52.180;4.512;2024-03-25T02:43:56;100815.09;;;5.98;76.76
82033;BME280;71595;52.180;4.512;2024-03-25T02:46:22;100804.53;;;5.91;76.78
82033;BME280;71595;52.180;4.512;2024-03-25T02:48:47;100804.34;;;5.88;77.07
82033;BME280;71595;52.180;4.512;2024-03-25T02:51:13;100807.38;;;5.86;77.01
82033;BME280;71595;52.180;4.512;2024-03-25T02:53:38;100808.63;;;5.80;76.74
82033;BME280;71595;52.180;4.512;2024-03-25T02:56:04;100800.00;;;5.73;76.62
82033;BME280;71595;52.180;4.512;2024-03-25T02:58:29;100809.97;;;5.69;76.84
82033;BME280;71595;52.180;4.512;2024-03-25T03:00:54;100802.38;;;5.66;76.89
82033;BME280;71595;52.180;4.512;2024-03-25T03:03:20;100798.59;;;5.62;77.09
82033;BME280;71595;52.180;4.512;2024-03-25T03:05:45;100800.31;;;5.57;77.25
82033;BME280;71595;52.180;4.512;2024-03-25T03:08:10;100795.47;;;5.54;77.02
82033;BME280;71595;52.180;4.512;2024-03-25T03:10:36;100791.72;;;5.50;77.54
82033;BME280;71595;52.180;4.512;2024-03-25T03:13:01;100798.13;;;5.46;77.99
82033;BME280;71595;52.180;4.512;2024-03-25T03:15:26;100788.41;;;5.39;78.01
82033;BME280;71595;52.180;4.512;2024-03-25T03:17:52;100794.25;;;5.33;78.07
82033;BME280;71595;52.180;4.512;2024-03-25T03:20:17;100801.19;;;5.30;77.73
82033;BME280;71595;52.180;4.512;2024-03-25T03:22:42;100789.19;;;5.26;78.13
82033;BME280;71595;52.180;4.512;2024-03-25T03:25:08;100791.25;;;5.20;78.51
82033;BME280;71595;52.180;4.512;2024-03-25T03:27:33;100792.66;;;5.18;78.67
82033;BME280;71595;52.180;4.512;2024-03-25T03:29:58;100789.72;;;5.14;78.67
82033;BME280;71595;52.180;4.512;2024-03-25T03:32:24;100788.59;;;5.15;78.36
82033;BME280;71595;52.180;4.512;2024-03-25T03:34:49;100787.00;;;5.14;78.63
82033;BME280;71595;52.180;4.512;2024-03-25T03:37:14;100787.38;;;5.08;78.66
82033;BME280;71595;52.180;4.512;2024-03-25T03:39:39;100779.47;;;5.06;78.93
82033;BME280;71595;52.180;4.512;2024-03-25T03:42:05;100784.94;;;5.06;78.89
82033;BME280;71595;52.180;4.512;2024-03-25T03:44:30;100781.69;;;5.04;79.19
82033;BME280;71595;52.180;4.512;2024-03-25T03:46:56;100776.34;;;4.99;79.18
82033;BME280;71595;52.180;4.512;2024-03-25T03:49:21;100777.25;;;4.94;78.58
82033;BME280;71595;52.180;4.512;2024-03-25T03:51:46;100773.69;;;4.94;79.46
82033;BME280;71595;52.180;4.512;2024-03-25T03:54:12;100783.03;;;4.93;78.81
82033;BME280;71595;52.180;4.512;2024-03-25T03:56:37;100772.16;;;4.88;79.29
82033;BME280;71595;52.180;4.512;2024-03-25T03:59:02;100777.94;;;4.86;79.35
82033;BME280;71595;52.180;4.512;2024-03-25T04:01:29;100779.34;;;4.83;79.61
82033;BME280;71595;52.180;4.512;2024-03-25T04:03:54;100777.22;;;4.80;79.87
82033;BME280;71595;52.180;4.512;2024-03-25T04:06:20;100775.41;;;4.76;79.59
82033;BME280;71595;52.180;4.512;2024-03-25T04:08:45;100772.97;;;4.74;79.49
82033;BME280;71595;52.180;4.512;2024-03-25T04:11:11;100773.56;;;4.71;79.62
82033;BME280;71595;52.180;4.512;2024-03-25T04:13:36;100776.91;;;4.68;79.96
82033;BME280;71595;52.180;4.512;2024-03-25T04:16:05;100773.97;;;4.64;80.35
82033;BME280;71595;52.180;4.512;2024-03-25T04:18:32;100774.78;;;4.65;80.07
82033;BME280;71595;52.180;4.512;2024-03-25T04:20:58;100774.47;;;4.66;80.06
82033;BME280;71595;52.180;4.512;2024-03-25T04:23:23;100775.06;;;4.63;79.82
82033;BME280;71595;52.180;4.512;2024-03-25T04:25:49;100773.97;;;4.64;80.13
82033;BME280;71595;52.180;4.512;2024-03-25T04:28:15;100765.84;;;4.59;80.17
82033;BME280;71595;52.180;4.512;2024-03-25T04:30:40;100777.06;;;4.58;80.27
82033;BME280;71595;52.180;4.512;2024-03-25T04:33:06;100775.78;;;4.55;80.08
82033;BME280;71595;52.180;4.512;2024-03-25T04:35:32;100777.16;;;4.53;80.41
82033;BME280;71595;52.180;4.512;2024-03-25T04:37:57;100776.38;;;4.52;80.73
82033;BME280;71595;52.180;4.512;2024-03-25T04:40:22;100777.16;;;4.53;80.71
82033;BME280;71595;52.180;4.512;2024-03-25T04:42:48;100774.94;;;4.55;80.91
82033;BME280;71595;52.180;4.512;2024-03-25T04:45:14;100771.69;;;4.53;80.61
82033;BME280;71595;52.180;4.512;2024-03-25T04:47:39;100771.69;;;4.53;80.52
82033;BME280;71595;52.180;4.512;2024-03-25T04:50:06;100769.56;;;4.49;80.73
82033;BME280;71595;52.180;4.512;2024-03-25T04:52:31;100773.69;;;4.47;80.48
82033;BME280;71595;52.180;4.512;2024-03-25T04:54:58;100778.38;;;4.46;80.57
82033;BME280;71595;52.180;4.512;2024-03-25T04:57:23;100778.16;;;4.43;80.44
82033;BME280;71595;52.180;4.512;2024-03-25T04:59:49;100779.56;;;4.40;81.35
82033;BME280;71595;52.180;4.512;2024-03-25T05:02:14;100788.28;;;4.42;81.20
82033;BME280;71595;52.180;4.512;2024-03-25T05:04:40;100789.41;;;4.41;81.04
82033;BME280;71595;52.180;4.512;2024-03-25T05:07:05;100784.53;;;4.38;81.00
82033;BME280;71595;52.180;4.512;2024-03-25T05:09:31;100791.91;;;4.38;81.38
82033;BME280;71595;52.180;4.512;2024-03-25T05:11:56;100794.13;;;4.36;81.33
82033;BME280;71595;52.180;4.512;2024-03-25T05:14:21;100786.13;;;4.39;81.34
82033;BME280;71595;52.180;4.512;2024-03-25T05:16:47;100786.66;;;4.41;81.43
82033;BME280;71595;52.180;4.512;2024-03-25T05:19:14;100789.91;;;4.43;81.71
82033;BME280;71595;52.180;4.512;2024-03-25T05:21:39;100794.78;;;4.46;81.82
82033;BME280;71595;52.180;4.512;2024-03-25T05:24:04;100783.25;;;4.49;81.75
82033;BME280;71595;52.180;4.512;2024-03-25T05:26:30;100787.91;;;4.49;82.00
82033;BME280;71595;52.180;4.512;2024-03-25T05:28:56;100788.22;;;4.47;81.92
82033;BME280;71595;52.180;4.512;2024-03-25T05:31:21;100791.75;;;4.48;81.27
82033;BME280;71595;52.180;4.512;2024-03-25T05:33:47;100790.34;;;4.50;81.54
82033;BME280;71595;52.180;4.512;2024-03-25T05:36:13;100782.13;;;4.50;81.50
82033;BME280;71595;52.180;4.512;2024-03-25T05:38:38;100768.75;;;4.49;81.23
82033;BME280;71595;52.180;4.512;2024-03-25T05:41:04;100769.56;;;4.49;81.20
82033;BME280;71595;52.180;4.512;2024-03-25T05:43:30;100776.22;;;4.43;80.98
82033;BME280;71595;52.180;4.512;2024-03-25T05:45:56;100783.25;;;4.49;81.32
82033;BME280;71595;52.180;4.512;2024-03-25T05:48:23;100776.13;;;4.48;81.33
82033;BME280;71595;52.180;4.512;2024-03-25T05:51:05;100769.06;;;4.47;80.84
82033;BME280;71595;52.180;4.512;2024-03-25T05:53:32;100771.25;;;4.45;80.82
82033;BME280;71595;52.180;4.512;2024-03-25T05:55:58;100771.25;;;4.45;81.08
82033;BME280;71595;52.180;4.512;2024-03-25T05:58:24;100771.25;;;4.45;80.77
82033;BME280;71595;52.180;4.512;2024-03-25T06:00:51;100772.09;;;4.46;80.81
82033;BME280;71595;52.180;4.512;2024-03-25T06:03:16;100760.31;;;4.45;80.57
82033;BME280;71595;52.180;4.512;2024-03-25T06:05:45;100764.19;;;4.44;81.20
82033;BME280;71595;52.180;4.512;2024-03-25T06:08:10;100758.72;;;4.44;80.81
82033;BME280;71595;52.180;4.512;2024-03-25T06:10:45;100763.38;;;4.44;81.03
82033;BME280;71595;52.180;4.512;2024-03-25T06:13:11;100755.69;;;4.46;80.97
82033;BME280;71595;52.180;4.512;2024-03-25T06:15:36;100751.03;;;4.46;81.11
82033;BME280;71595;52.180;4.512;2024-03-25T06:18:01;100754.34;;;4.43;81.63
82033;BME280;71595;52.180;4.512;2024-03-25T06:20:27;100748.38;;;4.41;82.04
82033;BME280;71595;52.180;4.512;2024-03-25T06:22:52;100755.47;;;4.42;82.11
82033;BME280;71595;52.180;4.512;2024-03-25T06:25:17;100759.72;;;4.48;81.92
82033;BME280;71595;52.180;4.512;2024-03-25T06:27:43;100757.72;;;4.54;82.05
82033;BME280;71595;52.180;4.512;2024-03-25T06:30:12;100749.41;;;4.59;82.04
82033;BME280;71595;52.180;4.512;2024-03-25T06:32:56;100752.88;;;4.65;81.95
82033;BME280;71595;52.180;4.512;2024-03-25T06:35:42;100752.78;;;4.70;81.71
82033;BME280;71595;52.180;4.512;2024-03-25T06:38:08;100752.38;;;4.77;82.46
82033;BME280;71595;52.180;4.512;2024-03-25T06:40:34;100751.47;;;4.81;82.24
82033;BME280;71595;52.180;4.512;2024-03-25T06:42:59;100754.13;;;4.86;82.39
82033;BME280;71595;52.180;4.512;2024-03-25T06:45:34;100738.69;;;4.91;82.35
82033;BME280;71595;52.180;4.512;2024-03-25T06:47:59;100755.03;;;4.96;82.97
82033;BME280;71595;52.180;4.512;2024-03-25T06:50:25;100747.22;;;5.03;82.84
82033;BME280;71595;52.180;4.512;2024-03-25T06:52:50;100752.69;;;5.03;83.33
82033;BME280;71595;52.180;4.512;2024-03-25T06:55:16;100754.44;;;4.99;83.93
82033;BME280;71595;52.180;4.512;2024-03-25T06:57:41;100765.09;;;5.00;83.86
82033;BME280;71595;52.180;4.512;2024-03-25T07:00:07;100756.16;;;5.09;83.92
82033;BME280;71595;52.180;4.512;2024-03-25T07:02:38;100751.28;;;5.19;83.73
82033;BME280;71595;52.180;4.512;2024-03-25T07:05:04;100760.81;;;5.22;83.69
82033;BME280;71595;52.180;4.512;2024-03-25T07:07:29;100760.59;;;5.32;83.76
82033;BME280;71595;52.180;4.512;2024-03-25T07:09:55;100756.94;;;5.37;83.61
82033;BME280;71595;52.180;4.512;2024-03-25T07:12:20;100748.13;;;5.40;83.29
82033;BME280;71595;52.180;4.512;2024-03-25T07:14:45;100750.13;;;5.48;83.63
82033;BME280;71595;52.180;4.512;2024-03-25T07:17:11;100753.75;;;5.57;84.47
82033;BME280;71595;52.180;4.512;2024-03-25T07:19:36;100755.66;;;5.71;83.73
82033;BME280;71595;52.180;4.512;2024-03-25T07:22:01;100766.06;;;5.83;83.34
82033;BME280;71595;52.180;4.512;2024-03-25T07:24:32;100758.84;;;5.87;82.78
82033;BME280;71595;52.180;4.512;2024-03-25T07:26:58;100755.19;;;5.91;82.92
82033;BME280;71595;52.180;4.512;2024-03-25T07:29:23;100761.69;;;5.96;82.86
82033;BME280;71595;52.180;4.512;2024-03-25T07:31:48;100764.31;;;6.01;82.77
82033;BME280;71595;52.180;4.512;2024-03-25T07:34:14;100762.28;;;6.06;83.05
82033;BME280;71595;52.180;4.512;2024-03-25T07:36:39;100759.09;;;6.13;82.17
82033;BME280;71595;52.180;4.512;2024-03-25T07:39:04;100761.38;;;6.20;82.06
82033;BME280;71595;52.180;4.512;2024-03-25T07:41:36;100771.00;;;6.31;81.76
82033;BME280;71595;52.180;4.512;2024-03-25T07:44:01;100769.94;;;6.41;81.24
82033;BME280;71595;52.180;4.512;2024-03-25T07:46:27;100766.44;;;6.49;81.80
82033;BME280;71595;52.180;4.512;2024-03-25T07:48:52;100762.91;;;6.57;81.69
82033;BME280;71595;52.180;4.512;2024-03-25T07:51:17;100768.47;;;6.66;81.53
82033;BME280;71595;52.180;4.512;2024-03-25T07:53:43;100773.50;;;6.73;80.38
82033;BME280;71595;52.180;4.512;2024-03-25T07:56:08;100763.19;;;6.78;80.03
82033;BME280;71595;52.180;4.512;2024-03-25T07:58:34;100766.94;;;6.82;80.78
82033;BME280;71595;52.180;4.512;2024-03-25T08:00:59;100775.81;;;6.88;79.89
82033;BME280;71595;52.180;4.512;2024-03-25T08:03:25;100775.69;;;6.93;79.82
82033;BME280;71595;52.180;4.512;2024-03-25T08:05:51;100777.78;;;6.96;79.93
82033;BME280;71595;52.180;4.512;2024-03-25T08:08:16;100779.59;;;7.01;80.02
82033;BME280;71595;52.180;4.512;2024-03-25T08:10:43;100783.81;;;7.07;79.91
82033;BME280;71595;52.180;4.512;2024-03-25T08:13:08;100778.19;;;7.12;79.16
82033;BME280;71595;52.180;4.512;2024-03-25T08:15:33;100781.91;;;7.16;79.59
82033;BME280;71595;52.180;4.512;2024-03-25T08:17:58;100779.03;;;7.22;79.51
82033;BME280;71595;52.180;4.512;2024-03-25T08:20:24;100787.44;;;7.25;79.22
82033;BME280;71595;52.180;4.512;2024-03-25T08:22:49;100772.75;;;7.30;78.89
82033;BME280;71595;52.180;4.512;2024-03-25T08:25:14;100783.28;;;7.36;79.36
82033;BME280;71595;52.180;4.512;2024-03-25T08:27:40;100772.94;;;7.42;79.46
82033;BME280;71595;52.180;4.512;2024-03-25T08:30:05;100780.25;;;7.47;79.34
82033;BME280;71595;52.180;4.512;2024-03-25T08:32:31;100777.66;;;7.50;79.41
82033;BME280;71595;52.180;4.512;2024-03-25T08:34:58;100779.13;;;7.56;78.22
82033;BME280;71595;52.180;4.512;2024-03-25T08:37:23;100770.72;;;7.62;79.15
82033;BME280;71595;52.180;4.512;2024-03-25T08:39:48;100773.31;;;7.67;78.34
82033;BME280;71595;52.180;4.512;2024-03-25T08:42:13;100770.72;;;7.70;77.83
82033;BME280;71595;52.180;4.512;2024-03-25T08:44:39;100768.97;;;7.74;76.99
82033;BME280;71595;52.180;4.512;2024-03-25T08:47:04;100761.69;;;7.79;76.59
82033;BME280;71595;52.180;4.512;2024-03-25T08:49:29;100765.88;;;7.85;76.83
82033;BME280;71595;52.180;4.512;2024-03-25T08:51:55;100760.25;;;7.90;75.26
82033;BME280;71595;52.180;4.512;2024-03-25T08:54:20;100766.69;;;7.94;75.10
82033;BME280;71595;52.180;4.512;2024-03-25T08:56:45;100755.84;;;7.98;74.84
82033;BME280;71595;52.180;4.512;2024-03-25T08:59:10;100762.81;;;8.04;74.36
82033;BME280;71595;52.180;4.512;2024-03-25T09:01:36;100755.22;;;8.09;74.58
82033;BME280;71595;52.180;4.512;2024-03-25T09:04:01;100746.78;;;8.15;73.98
82033;BME280;71595;52.180;4.512;2024-03-25T09:06:27;100752.13;;;8.20;73.18
82033;BME280;71595;52.180;4.512;2024-03-25T09:08:53;100753.09;;;8.24;73.53
82033;BME280;71595;52.180;4.512;2024-03-25T09:11:37;100738.19;;;8.34;74.03
82033;BME280;71595;52.180;4.512;2024-03-25T09:14:02;100741.56;;;8.39;73.88
82033;BME280;71595;52.180;4.512;2024-03-25T09:16:29;100728.63;;;8.49;73.79
82033;BME280;71595;52.180;4.512;2024-03-25T09:18:55;100724.88;;;8.53;73.76
82033;BME280;71595;52.180;4.512;2024-03-25T09:21:20;100733.94;;;8.62;74.13
82033;BME280;71595;52.180;4.512;2024-03-25T09:23:47;100724.34;;;8.69;74.08
82033;BME280;71595;52.180;4.512;2024-03-25T09:26:13;100714.31;;;8.73;73.75
82033;BME280;71595;52.180;4.512;2024-03-25T09:28:38;100719.16;;;8.76;73.53
82033;BME280;71595;52.180;4.512;2024-03-25T09:31:04;100715.41;;;8.80;73.69
82033;BME280;71595;52.180;4.512;2024-03-25T09:33:31;100716.69;;;8.83;73.53
82033;BME280;71595;52.180;4.512;2024-03-25T09:35:56;100710.19;;;8.88;73.20
82033;BME280;71595;52.180;4.512;2024-03-25T09:38:22;100709.06;;;8.89;73.65
82033;BME280;71595;52.180;4.512;2024-03-25T09:40:47;100705.63;;;8.92;73.31
82033;BME280;71595;52.180;4.512;2024-03-25T09:43:30;100709.81;;;8.98;73.35
82033;BME280;71595;52.180;4.512;2024-03-25T09:45:57;100705.25;;;9.02;73.16
82033;BME280;71595;52.180;4.512;2024-03-25T09:48:24;100700.69;;;9.06;74.01
82033;BME280;71595;52.180;4.512;2024-03-25T09:50:50;100695.31;;;9.10;73.72
82033;BME280;71595;52.180;4.512;2024-03-25T09:53:17;100702.13;;;9.12;72.94
82033;BME280;71595;52.180;4.512;2024-03-25T09:55:42;100696.59;;;9.12;73.10
82033;BME280;71595;52.180;4.512;2024-03-25T09:58:08;100695.13;;;9.15;73.20
82033;BME280;71595;52.180;4.512;2024-03-25T10:00:33;100700.44;;;9.20;73.18
82033;BME280;71595;52.180;4.512;2024-03-25T10:02:59;100699.44;;;9.25;73.44
82033;BME280;71595;52.180;4.512;2024-03-25T10:05:24;100696.03;;;9.28;73.43
82033;BME280;71595;52.180;4.512;2024-03-25T10:07:49;100692.13;;;9.29;73.22
82033;BME280;71595;52.180;4.512;2024-03-25T10:10:19;100695.81;;;9.33;72.88
82033;BME280;71595;52.180;4.512;2024-03-25T10:12:45;100682.19;;;9.37;72.99
82033;BME280;71595;52.180;4.512;2024-03-25T10:15:18;100685.53;;;9.42;73.14
82033;BME280;71595;52.180;4.512;2024-03-25T10:17:44;100684.06;;;9.45;72.93
82033;BME280;71595;52.180;4.512;2024-03-25T10:20:15;100678.91;;;9.43;72.86
82033;BME280;71595;52.180;4.512;2024-03-25T10:22:42;100683.41;;;9.48;72.46
82033;BME280;71595;52.180;4.512;2024-03-25T10:25:18;100680.31;;;9.49;72.20
82033;BME280;71595;52.180;4.512;2024-03-25T10:27:53;100679.22;;;9.63;71.95
82033;BME280;71595;52.180;4.512;2024-03-25T10:30:19;100685.81;;;9.70;71.03
82033;BME280;71595;52.180;4.512;2024-03-25T10:33:01;100659.97;;;9.75;70.34
82033;BME280;71595;52.180;4.512;2024-03-25T10:38:31;100672.56;;;9.85;68.44
82033;BME280;71595;52.180;4.512;2024-03-25T10:40:57;100663.06;;;9.95;67.22
82033;BME280;71595;52.180;4.512;2024-03-25T10:43:25;100667.09;;;9.97;67.82
82033;BME280;71595;52.180;4.512;2024-03-25T10:45:55;100658.34;;;9.95;68.14
82033;BME280;71595;52.180;4.512;2024-03-25T10:48:29;100659.38;;;10.03;67.79
82033;BME280;71595;52.180;4.512;2024-03-25T10:50:56;100647.69;;;10.06;68.15
82033;BME280;71595;52.180;4.512;2024-03-25T10:53:22;100656.41;;;10.08;67.00
82033;BME280;71595;52.180;4.512;2024-03-25T10:55:54;100652.41;;;10.05;66.85
82033;BME280;71595;52.180;4.512;2024-03-25T10:58:23;100646.44;;;10.16;65.75
82033;BME280;71595;52.180;4.512;2024-03-25T11:00:51;100645.19;;;10.25;64.18
82033;BME280;71595;52.180;4.512;2024-03-25T11:03:17;100640.59;;;10.30;64.60
82033;BME280;71595;52.180;4.512;2024-03-25T11:05:42;100633.03;;;10.39;64.52
82033;BME280;71595;52.180;4.512;2024-03-25T11:08:15;100632.59;;;10.49;64.15
82033;BME280;71595;52.180;4.512;2024-03-25T11:10:45;100638.38;;;10.44;65.05
82033;BME280;71595;52.180;4.512;2024-03-25T11:13:17;100630.63;;;10.50;64.16
82033;BME280;71595;52.180;4.512;2024-03-25T11:15:43;100624.19;;;10.58;63.07
82033;BME280;71595;52.180;4.512;2024-03-25T11:18:16;100622.03;;;10.64;61.73
82033;BME280;71595;52.180;4.512;2024-03-25T11:20:42;100619.38;;;10.67;60.44
82033;BME280;71595;52.180;4.512;2024-03-25T11:23:12;100617.63;;;10.75;57.68
82033;BME280;71595;52.180;4.512;2024-03-25T11:25:39;100610.63;;;10.77;57.54
82033;BME280;71595;52.180;4.512;2024-03-25T11:28:05;100602.00;;;10.79;58.32
82033;BME280;71595;52.180;4.512;2024-03-25T11:30:31;100600.50;;;10.82;60.99
82033;BME280;71595;52.180;4.512;2024-03-25T11:32:58;100592.56;;;10.80;60.51
82033;BME280;71595;52.180;4.512;2024-03-25T11:35:24;100588.28;;;10.83;61.88
82033;BME280;71595;52.180;4.512;2024-03-25T11:37:50;100587.72;;;10.77;60.50
82033;BME280;71595;52.180;4.512;2024-03-25T11:40:17;100584.50;;;10.75;59.16
82033;BME280;71595;52.180;4.512;2024-03-25T11:42:44;100577.03;;;10.75;59.54
82033;BME280;71595;52.180;4.512;2024-03-25T11:45:30;100580.00;;;10.83;58.56
82033;BME280;71595;52.180;4.512;2024-03-25T11:47:57;100565.63;;;10.89;58.93
82033;BME280;71595;52.180;4.512;2024-03-25T11:50:23;100563.41;;;10.95;58.99
82033;BME280;71595;52.180;4.512;2024-03-25T11:52:48;100562.50;;;10.91;58.14
82033;BME280;71595;52.180;4.512;2024-03-25T11:55:17;100569.75;;;10.95;57.90
82033;BME280;71595;52.180;4.512;2024-03-25T11:57:43;100571.34;;;10.84;58.15
82033;BME280;71595;52.180;4.512;2024-03-25T12:00:09;100572.97;;;10.85;57.16
82033;BME280;71595;52.180;4.512;2024-03-25T12:02:45;100564.00;;;10.76;57.27
82033;BME280;71595;52.180;4.512;2024-03-25T12:05:11;100561.50;;;10.71;57.26
82033;BME280;71595;52.180;4.512;2024-03-25T12:07:37;100573.25;;;10.68;57.40
82033;BME280;71595;52.180;4.512;2024-03-25T12:10:02;100562.88;;;10.77;58.30
82033;BME280;71595;52.180;4.512;2024-03-25T12:12:47;100567.22;;;10.78;58.86
82033;BME280;71595;52.180;4.512;2024-03-25T12:15:12;100557.91;;;10.83;57.04
82033;BME280;71595;52.180;4.512;2024-03-25T12:17:38;100550.97;;;10.89;56.30
82033;BME280;71595;52.180;4.512;2024-03-25T12:20:07;100546.84;;;10.83;57.30
82033;BME280;71595;52.180;4.512;2024-03-25T12:22:34;100544.22;;;10.74;55.40
82033;BME280;71595;52.180;4.512;2024-03-25T12:25:01;100550.66;;;10.78;55.04
82033;BME280;71595;52.180;4.512;2024-03-25T12:27:38;100539.47;;;10.87;54.67
82033;BME280;71595;52.180;4.512;2024-03-25T12:30:07;100545.59;;;10.92;54.33
82033;BME280;71595;52.180;4.512;2024-03-25T12:32:43;100542.16;;;10.83;53.27
82033;BME280;71595;52.180;4.512;2024-03-25T12:35:11;100543.25;;;10.94;53.29
82033;BME280;71595;52.180;4.512;2024-03-25T12:37:40;100541.63;;;10.93;53.01
82033;BME280;71595;52.180;4.512;2024-03-25T12:40:06;100539.22;;;10.92;53.31
82033;BME280;71595;52.180;4.512;2024-03-25T12:42:33;100517.72;;;10.85;53.23
82033;BME280;71595;52.180;4.512;2024-03-25T12:44:59;100526.44;;;11.00;53.90
82033;BME280;71595;52.180;4.512;2024-03-25T12:47:24;100528.72;;;11.10;53.63
82033;BME280;71595;52.180;4.512;2024-03-25T12:49:50;100520.25;;;11.19;53.47
82033;BME280;71595;52.180;4.512;2024-03-25T12:52:16;100520.56;;;11.29;52.72
82033;BME280;71595;52.180;4.512;2024-03-25T12:54:41;100515.84;;;11.30;52.25
82033;BME280;71595;52.180;4.512;2024-03-25T12:57:07;100514.84;;;11.22;53.71